Time;durP1;ratioP1;P1;durP2;ratioP2;P2;SDS_P1;SDS_P2;PMS_P1;PMS_P2;Temp;Humidity;BMP_temperature;BMP_pressure;BME280_temperature;BME280_humidity;BME280_pressure;Samples;Min_cycle;Max_cycle;Signal;HPM_P1;HPM_P2
2022/12/13 00:01:53;;;;;;;32.38;19.67;;;;;;;-5.74;94.98;101212.03;5052283;28;20052;-52
2022/12/13 00:04:20;;;;;;;33.72;18.63;;;;;;;-5.73;95.01;101213.78;5046737;28;20028;-52
2022/12/13 00:06:46;;;;;;;31.20;18.65;;;;;;;-5.74;94.74;101209.44;5051567;28;20114;-53
2022/12/13 00:09:13;;;;;;;31.05;18.27;;;;;;;-5.78;94.59;101206.03;5052657;28;20064;-55
2022/12/13 00:11:39;;;;;;;31.58;18.33;;;;;;;-5.82;93.69;101210.34;5051282;28;20383;-52
2022/12/13 00:14:04;;;;;;;33.78;18.63;;;;;;;-5.83;94.47;101200.00;5040393;28;20045;-53
2022/12/13 00:16:29;;;;;;;32.08;18.42;;;;;;;-5.84;94.34;101201.75;5049909;28;20074;-56
2022/12/13 00:18:57;;;;;;;31.38;17.42;;;;;;;-5.85;94.67;101205.19;5052555;28;20025;-54
2022/12/13 00:21:26;;;;;;;30.50;18.48;;;;;;;-5.84;94.78;101200.91;5052629;28;20422;-52
2022/12/13 00:23:51;;;;;;;32.85;18.45;;;;;;;-5.85;94.53;101199.16;5051698;28;20028;-54
2022/12/13 00:26:19;;;;;;;31.60;17.35;;;;;;;-5.86;94.07;101200.00;5049920;28;20104;-55
2022/12/13 00:28:48;;;;;;;34.40;17.63;;;;;;;-5.88;94.00;101192.25;5051314;28;20028;-52
2022/12/13 00:31:14;;;;;;;34.25;18.20;;;;;;;-5.89;93.74;101200.91;5050618;28;20033;-55
2022/12/13 00:33:39;;;;;;;24.77;16.73;;;;;;;-5.90;94.03;101201.75;5052360;28;20426;-55
2022/12/13 00:36:06;;;;;;;28.50;16.20;;;;;;;-5.93;94.30;101199.16;5051522;28;20037;-55
2022/12/13 00:38:33;;;;;;;29.38;16.77;;;;;;;-5.92;94.21;101205.22;5051600;28;20364;-52
2022/12/13 00:40:58;;;;;;;30.52;18.52;;;;;;;-5.94;93.89;101200.06;5041427;28;20036;-56
2022/12/13 00:43:23;;;;;;;33.90;18.35;;;;;;;-5.93;94.01;101198.31;5050971;28;20025;-55
2022/12/13 00:45:49;;;;;;;30.40;17.77;;;;;;;-5.96;93.74;101188.88;5051294;28;20032;-53
2022/12/13 00:48:14;;;;;;;35.45;18.67;;;;;;;-5.96;94.16;101196.66;5051815;28;20035;-54
2022/12/13 00:50:39;;;;;;;31.70;18.42;;;;;;;-5.98;93.71;101195.78;5051030;28;20068;-55
2022/12/13 00:53:05;;;;;;;27.23;16.85;;;;;;;-6.01;93.94;101194.06;5051818;28;20443;-51
2022/12/13 00:55:31;;;;;;;30.67;17.98;;;;;;;-6.01;93.97;101188.91;5051326;28;20036;-53
2022/12/13 00:57:56;;;;;;;28.67;17.40;;;;;;;-6.02;94.44;101183.72;5051864;28;20104;-56
2022/12/13 01:00:22;;;;;;;30.08;19.00;;;;;;;-6.02;94.37;101186.31;5049412;28;20067;-56
2022/12/13 01:02:47;;;;;;;33.17;18.08;;;;;;;-6.02;94.01;101188.91;5044955;28;20047;-52
2022/12/13 01:05:13;;;;;;;30.08;19.55;;;;;;;-6.04;93.69;101188.06;5037563;28;20115;-55
2022/12/13 01:07:39;;;;;;;32.53;18.42;;;;;;;-6.05;94.39;101186.31;5051548;28;20086;-53
2022/12/13 01:10:06;;;;;;;36.20;19.65;;;;;;;-6.07;94.26;101188.91;5050175;28;20045;-52
2022/12/13 01:12:32;;;;;;;30.13;18.77;;;;;;;-6.08;94.08;101184.59;5051297;28;20115;-52
2022/12/13 01:14:58;;;;;;;28.17;17.88;;;;;;;-6.09;94.04;101175.13;5051221;28;20017;-53
2022/12/13 01:17:23;;;;;;;32.00;17.35;;;;;;;-6.07;94.02;101173.38;5050975;28;20087;-56
2022/12/13 01:19:49;;;;;;;29.38;17.45;;;;;;;-6.08;94.63;101176.81;5051449;28;20021;-52
2022/12/13 01:22:14;;;;;;;34.90;16.48;;;;;;;-6.08;94.03;101179.41;5050843;28;20032;-55
2022/12/13 01:24:40;;;;;;;28.38;17.23;;;;;;;-6.07;93.60;101172.53;5052552;28;20475;-55
2022/12/13 01:27:05;;;;;;;27.88;17.33;;;;;;;-6.09;94.17;101171.69;5055702;28;20029;-57
2022/12/13 01:29:30;;;;;;;29.25;17.63;;;;;;;-6.10;94.22;101177.72;5054211;28;20028;-55
2022/12/13 01:31:56;;;;;;;27.98;16.90;;;;;;;-6.14;94.02;101175.13;5055540;28;20479;-55
2022/12/13 01:34:22;;;;;;;27.65;16.58;;;;;;;-6.15;93.77;101170.81;5055004;28;20035;-55
2022/12/13 01:36:48;;;;;;;27.00;17.25;;;;;;;-6.18;93.66;101177.72;5055163;28;20467;-52
2022/12/13 01:39:18;;;;;;;28.38;17.30;;;;;;;-6.20;93.60;101182.03;5054288;28;20024;-55
2022/12/13 01:41:45;;;;;;;29.33;16.95;;;;;;;-6.23;93.75;101180.31;5055355;28;20033;-53
2022/12/13 01:44:48;;;;;;;29.45;17.20;;;;;;;-6.22;94.05;101184.63;5054803;28;20124;-52
2022/12/13 01:47:17;;;;;;;31.35;17.05;;;;;;;-6.25;94.04;101183.78;5050676;28;20394;-54
2022/12/13 01:49:42;;;;;;;31.17;17.15;;;;;;;-6.26;93.62;101187.22;5054252;28;20021;-55
2022/12/13 01:52:10;;;;;;;30.58;17.77;;;;;;;-6.28;93.42;101186.38;5054301;28;20351;-51
2022/12/13 01:54:43;;;;;;;29.47;16.83;;;;;;;-6.28;93.62;101189.78;5054875;28;20083;-53
2022/12/13 01:57:11;;;;;;;32.38;17.17;;;;;;;-6.29;93.70;101182.94;5054107;28;20112;-55
2022/12/13 01:59:38;;;;;;;31.25;17.88;;;;;;;-6.28;93.71;101179.47;5054356;28;20167;-55
2022/12/13 02:02:05;;;;;;;29.60;17.40;;;;;;;-6.30;94.25;101183.78;5051322;28;20025;-52
2022/12/13 02:04:41;;;;;;;30.60;17.52;;;;;;;-6.29;93.62;101185.50;5039178;28;20360;-55
2022/12/13 02:07:06;;;;;;;26.65;17.00;;;;;;;-6.30;94.24;101176.03;5053686;28;20434;-51
2022/12/13 02:09:34;;;;;;;31.27;17.88;;;;;;;-6.29;94.08;101182.03;5050793;28;20068;-53
2022/12/13 02:12:01;;;;;;;31.85;17.48;;;;;;;-6.29;93.57;101177.75;5054378;28;20024;-55
2022/12/13 02:14:26;;;;;;;26.77;15.63;;;;;;;-6.30;94.10;101180.34;5054032;28;20089;-52
2022/12/13 02:16:54;;;;;;;26.25;15.88;;;;;;;-6.32;93.76;101181.19;5054519;28;20460;-54
2022/12/13 02:19:56;;;;;;;33.42;16.75;;;;;;;-6.30;94.48;101176.03;5053825;28;20049;-53
2022/12/13 02:23:00;;;;;;;29.92;16.80;;;;;;;-6.32;94.02;101185.50;5047843;28;20069;-55
2022/12/13 02:25:56;;;;;;;31.38;17.45;;;;;;;-6.36;94.12;101182.06;5054673;28;20494;-52
2022/12/13 02:28:37;;;;;;;29.50;16.85;;;;;;;-6.37;94.18;101177.75;5049312;28;20386;-54
2022/12/13 02:31:11;;;;;;;26.85;16.63;;;;;;;-6.37;95.38;101179.50;5053338;28;20032;-52
2022/12/13 02:34:00;;;;;;;33.50;17.00;;;;;;;-6.37;95.51;101180.34;5054707;28;20040;-54
2022/12/13 02:36:31;;;;;;;;;;;;;;;-6.35;95.12;101181.19;5054117;28;20033;-52
2022/12/13 02:39:02;;;;;;;33.42;17.15;;;;;;;-6.37;95.46;101177.75;5053821;28;19913;-52
2022/12/13 02:41:35;;;;;;;26.42;16.15;;;;;;;-6.38;95.38;101173.47;5059024;28;20028;-51
2022/12/13 02:44:30;;;;;;;30.58;17.33;;;;;;;-6.38;95.48;101173.47;5056771;28;20283;-51
2022/12/13 02:47:01;;;;;;;27.40;16.05;;;;;;;-6.37;95.07;101170.00;5048716;28;20045;-54
2022/12/13 02:49:30;;;;;;;27.85;16.27;;;;;;;-6.37;94.55;101169.16;5051027;28;20106;-50
2022/12/13 02:51:58;;;;;;;25.95;15.98;;;;;;;-6.38;95.21;101157.97;5053589;28;20029;-55
2022/12/13 02:54:23;;;;;;;27.30;15.95;;;;;;;-6.39;94.91;101153.66;5038921;28;20032;-54
2022/12/13 02:56:55;;;;;;;28.30;16.40;;;;;;;-6.39;95.23;101157.97;5046612;28;20386;-52
2022/12/13 02:59:25;;;;;;;31.20;17.13;;;;;;;-6.39;94.82;101153.66;5041290;28;20077;-54
2022/12/13 03:02:25;;;;;;;29.08;17.42;;;;;;;-6.38;95.35;101149.31;5052477;28;20156;-51
2022/12/13 03:08:01;;;;;;;32.60;17.33;;;;;;;-6.37;95.82;101141.56;5044946;28;20005;-50
2022/12/13 03:10:38;;;;;;;32.72;16.65;;;;;;;-6.37;95.55;101144.16;5050284;28;20021;-53
2022/12/13 03:15:58;;;;;;;31.27;16.85;;;;;;;-6.39;96.01;101142.47;5040708;28;20044;-50
2022/12/13 03:18:27;;;;;;;34.47;19.33;;;;;;;-6.38;96.14;101151.91;5052151;28;20032;-52
2022/12/13 03:20:59;;;;;;;33.00;19.05;;;;;;;-6.39;96.06;101150.22;5053317;28;20016;-53
2022/12/13 03:23:25;;;;;;;32.10;19.13;;;;;;;-6.38;96.43;101149.31;5052066;28;20327;-51
2022/12/13 03:25:59;;;;;;;33.17;18.45;;;;;;;-6.37;97.40;101156.22;5053108;28;20159;-51
2022/12/13 03:28:25;;;;;;;32.38;18.70;;;;;;;-6.36;98.29;101147.59;5043607;28;20025;-51
2022/12/13 03:30:50;;;;;;;37.63;19.95;;;;;;;-6.35;97.94;101151.91;5048603;28;20470;-55
2022/12/13 03:33:15;;;;;;;34.97;20.02;;;;;;;-6.34;98.09;101151.06;5052445;28;20044;-52
2022/12/13 03:35:42;;;;;;;33.15;18.75;;;;;;;-6.35;98.18;101144.16;5052050;28;20037;-53
2022/12/13 03:38:09;;;;;;;30.90;17.40;;;;;;;-6.35;97.84;101147.59;5052177;28;20029;-54
2022/12/13 03:40:35;;;;;;;32.78;17.80;;;;;;;-6.34;97.64;101148.47;5052203;28;20375;-51
2022/12/13 03:43:01;;;;;;;33.05;19.25;;;;;;;-6.33;97.82;101145.88;5050179;28;20135;-54
2022/12/13 03:45:26;;;;;;;33.10;18.15;;;;;;;-6.32;97.58;101147.59;5052379;28;20025;-52
2022/12/13 03:47:52;;;;;;;29.00;18.55;;;;;;;-6.32;97.89;101137.25;5051367;28;20060;-51
2022/12/13 03:50:17;;;;;;;32.75;17.98;;;;;;;-6.29;98.24;101136.41;5052339;28;20032;-54
2022/12/13 03:52:43;;;;;;;32.25;19.38;;;;;;;-6.29;97.65;101140.69;5051119;28;20031;-52
2022/12/13 03:55:08;;;;;;;30.55;19.13;;;;;;;-6.30;97.93;101145.00;5052404;28;20488;-52
2022/12/13 03:57:34;;;;;;;33.60;18.50;;;;;;;-6.30;96.97;101142.41;5052162;28;20086;-52
2022/12/13 03:59:59;;;;;;;29.13;18.02;;;;;;;-6.30;97.57;101137.25;5051151;28;20029;-54
2022/12/13 04:02:24;;;;;;;33.85;18.77;;;;;;;-6.29;97.20;101132.94;5043809;28;20029;-51
2022/12/13 04:04:49;;;;;;;30.70;18.65;;;;;;;-6.29;97.77;101138.97;5047182;28;20433;-54
2022/12/13 04:07:15;;;;;;;35.15;19.35;;;;;;;-6.29;98.04;101130.34;5051935;28;20112;-51
2022/12/13 04:09:40;;;;;;;29.98;18.70;;;;;;;-6.29;97.68;101130.34;5051321;28;20025;-51
2022/12/13 04:14:49;;;;;;;34.42;19.20;;;;;;;-6.28;98.09;101132.06;5048987;28;20063;-51
2022/12/13 04:17:15;;;;;;;32.75;18.92;;;;;;;-6.28;98.98;101129.50;5051616;28;20037;-50
2022/12/13 04:19:40;;;;;;;34.30;19.88;;;;;;;-6.27;98.30;101132.06;5051476;28;20025;-51
2022/12/13 04:22:05;;;;;;;33.53;18.73;;;;;;;-6.26;99.11;101125.16;5045323;28;20025;-52
2022/12/13 04:24:30;;;;;;;31.25;17.73;;;;;;;-6.27;99.20;101121.75;5051365;28;20021;-50
2022/12/13 04:26:56;;;;;;;36.85;19.33;;;;;;;-6.26;99.11;101122.59;5050946;28;20025;-51
2022/12/13 04:29:21;;;;;;;39.38;18.88;;;;;;;-6.25;98.85;101125.16;5051639;28;20044;-52
2022/12/13 04:31:46;;;;;;;39.35;20.08;;;;;;;-6.24;99.57;101120.88;5057467;28;20013;-51
2022/12/13 04:34:12;;;;;;;30.45;17.77;;;;;;;-6.24;99.04;101123.47;5050487;28;20035;-50
2022/12/13 04:36:37;;;;;;;36.00;19.77;;;;;;;-6.22;99.94;101127.75;5045967;28;20030;-52
2022/12/13 04:39:04;;;;;;;33.10;19.10;;;;;;;-6.21;99.38;101124.31;5047757;28;20086;-50
2022/12/13 04:41:35;;;;;;;29.48;18.60;;;;;;;-6.21;99.19;101119.16;5051485;28;20336;-51
2022/12/13 04:44:00;;;;;;;31.70;17.83;;;;;;;-6.21;99.40;101119.16;5050594;28;20044;-53
2022/12/13 04:46:26;;;;;;;33.60;18.35;;;;;;;-6.21;98.81;101120.84;5051479;28;20032;-51
2022/12/13 04:48:51;;;;;;;33.70;18.75;;;;;;;-6.21;98.97;101119.16;5051225;28;20033;-52
2022/12/13 04:51:16;;;;;;;41.85;19.85;;;;;;;-6.21;98.91;101107.91;5051798;28;20025;-54
2022/12/13 04:53:42;;;;;;;34.33;19.73;;;;;;;-6.22;98.69;101107.06;5050675;28;20082;-50
2022/12/13 04:56:07;;;;;;;33.70;18.35;;;;;;;-6.21;98.57;101119.16;5048065;28;20021;-50
2022/12/13 04:58:33;;;;;;;31.40;18.17;;;;;;;-6.21;98.58;101107.91;5049697;28;20017;-51
2022/12/13 05:00:58;;;;;;;31.00;18.08;;;;;;;-6.22;98.73;101112.25;5051599;28;20040;-50
2022/12/13 05:03:23;;;;;;;33.53;19.42;;;;;;;-6.21;99.33;101113.97;5037932;28;20021;-52
2022/12/13 05:05:49;;;;;;;33.70;18.38;;;;;;;-6.20;99.05;101114.81;5050692;28;20033;-53
2022/12/13 05:08:14;;;;;;;31.25;17.65;;;;;;;-6.18;99.84;101107.91;5051086;28;20033;-50
2022/12/13 05:10:40;;;;;;;29.60;16.90;;;;;;;-6.18;99.02;101119.13;5051037;28;20044;-50
2022/12/13 05:13:05;;;;;;;36.50;18.50;;;;;;;-6.19;98.91;101116.56;5050544;28;20052;-50
2022/12/13 05:15:31;;;;;;;33.55;19.30;;;;;;;-6.19;99.04;101121.72;5051280;28;20029;-53
2022/12/13 05:18:01;;;;;;;32.22;18.73;;;;;;;-6.19;99.47;101106.22;5050926;28;20063;-50
2022/12/13 05:20:26;;;;;;;30.65;18.00;;;;;;;-6.19;98.86;101106.22;5049440;28;20029;-50
2022/12/13 05:22:54;;;;;;;31.55;19.52;;;;;;;-6.20;98.68;101110.50;5050852;28;20021;-50
2022/12/13 05:25:20;;;;;;;34.78;19.15;;;;;;;-6.20;98.48;101110.50;5050436;28;20033;-54
2022/12/13 05:27:45;;;;;;;27.65;16.88;;;;;;;-6.20;98.71;101096.72;5050181;28;20029;-49
2022/12/13 05:30:11;;;;;;;29.92;18.05;;;;;;;-6.21;98.10;101095.88;5051426;28;20029;-52
2022/12/13 05:32:40;;;;;;;32.33;19.13;;;;;;;-6.20;98.20;101094.13;5050812;28;20120;-50
2022/12/13 05:35:05;;;;;;;33.05;19.40;;;;;;;-6.22;98.59;101094.16;5050439;28;20029;-51
2022/12/13 05:37:31;;;;;;;34.25;19.00;;;;;;;-6.21;98.46;101093.28;5050445;28;20029;-50
2022/12/13 05:39:56;;;;;;;31.65;19.25;;;;;;;-6.20;99.00;101101.91;5051477;28;20103;-54
2022/12/13 05:42:21;;;;;;;32.17;18.92;;;;;;;-6.19;98.66;101095.88;5049908;28;20443;-52
2022/12/13 05:44:46;;;;;;;36.00;19.17;;;;;;;-6.21;98.54;101087.25;5051157;28;20083;-49
2022/12/13 05:47:12;;;;;;;31.98;19.05;;;;;;;-6.20;98.79;101096.72;5051708;28;20453;-49
2022/12/13 05:49:37;;;;;;;34.63;20.33;;;;;;;-6.18;99.45;101092.41;5050728;28;20029;-52
2022/12/13 05:52:02;;;;;;;36.15;19.90;;;;;;;-6.18;99.61;101087.22;5050020;28;20398;-49
2022/12/13 05:54:27;;;;;;;36.20;19.75;;;;;;;-6.18;99.15;101089.81;5050770;28;20133;-50
2022/12/13 05:56:53;;;;;;;35.63;19.85;;;;;;;-6.17;99.38;101086.38;5050270;28;20040;-50
2022/12/13 05:59:18;;;;;;;35.03;20.85;;;;;;;-6.17;99.47;101084.66;5050684;28;20087;-50
2022/12/13 06:01:43;;;;;;;34.72;20.73;;;;;;;-6.14;99.74;101088.97;5047155;28;20553;-50
2022/12/13 06:04:09;;;;;;;36.15;20.02;;;;;;;-6.12;100.00;101092.38;5039941;28;20044;-50
2022/12/13 06:06:34;;;;;;;31.67;19.65;;;;;;;-6.11;100.00;101093.25;5049814;28;20143;-49
2022/12/13 06:08:59;;;;;;;35.05;20.30;;;;;;;-6.09;100.00;101088.94;5050000;28;20507;-50
2022/12/13 06:11:25;;;;;;;34.08;19.13;;;;;;;-6.10;100.00;101098.41;5053267;28;20029;-52
2022/12/13 06:13:51;;;;;;;32.17;20.08;;;;;;;-6.10;100.00;101094.97;5053512;28;20052;-50
2022/12/13 06:16:17;;;;;;;39.72;20.70;;;;;;;-6.10;100.00;101092.38;5054018;28;20029;-50
2022/12/13 06:18:42;;;;;;;34.40;19.27;;;;;;;-6.10;100.00;101097.56;5054663;28;20040;-51
2022/12/13 06:21:07;;;;;;;34.10;19.33;;;;;;;-6.11;100.00;101093.25;5054456;28;20029;-50
2022/12/13 06:23:34;;;;;;;35.78;20.40;;;;;;;-6.11;99.90;101088.06;5053875;28;20029;-50
2022/12/13 06:26:05;;;;;;;34.28;19.10;;;;;;;-6.11;100.00;101095.81;5053385;28;20021;-51
2022/12/13 06:28:31;;;;;;;36.20;21.90;;;;;;;-6.11;99.63;101091.53;5050804;28;20048;-49
2022/12/13 06:31:01;;;;;;;37.72;21.52;;;;;;;-6.12;99.38;101094.97;5053600;28;20017;-50
2022/12/13 06:33:27;;;;;;;36.58;20.63;;;;;;;-6.10;100.00;101089.81;5053768;28;20037;-49
2022/12/13 06:35:55;;;;;;;39.28;20.67;;;;;;;-6.10;100.00;101100.16;5053908;28;20159;-49
2022/12/13 06:38:21;;;;;;;37.97;21.25;;;;;;;-6.10;100.00;101095.81;5054331;28;20039;-52
2022/12/13 06:40:47;;;;;;;39.40;20.83;;;;;;;-6.09;100.00;101099.28;5052330;28;20017;-51
2022/12/13 06:43:12;;;;;;;38.00;21.45;;;;;;;-6.09;100.00;101102.72;5053305;28;20491;-50
2022/12/13 06:45:39;;;;;;;37.95;22.17;;;;;;;-6.09;100.00;101101.88;5053335;28;20021;-49
2022/12/13 06:48:05;;;;;;;37.95;21.35;;;;;;;-6.08;100.00;101101.84;5060015;28;20117;-50
2022/12/13 06:50:30;;;;;;;35.45;21.05;;;;;;;-6.07;100.00;101100.13;5051254;28;20032;-49
2022/12/13 06:52:55;;;;;;;38.97;21.85;;;;;;;-6.07;100.00;101095.81;5052814;28;20109;-51
2022/12/13 06:55:20;;;;;;;37.63;21.73;;;;;;;-6.06;100.00;101091.50;5034852;28;20521;-51
2022/12/13 06:57:46;;;;;;;38.78;21.23;;;;;;;-6.08;100.00;101086.31;5052919;28;20021;-51
2022/12/13 07:00:12;;;;;;;39.00;21.55;;;;;;;-6.07;100.00;101087.22;5051313;28;20442;-47
2022/12/13 07:02:37;;;;;;;41.88;21.58;;;;;;;-6.07;100.00;101092.38;5035830;28;20039;-47
2022/12/13 07:05:02;;;;;;;42.50;22.23;;;;;;;-6.07;100.00;101088.06;5037032;28;20074;-49
2022/12/13 07:07:28;;;;;;;39.60;21.73;;;;;;;-6.08;100.00;101090.66;5049548;28;20052;-50
2022/12/13 07:09:54;;;;;;;40.22;21.48;;;;;;;-6.08;100.00;101090.66;5052844;28;20024;-49
2022/12/13 07:12:20;;;;;;;37.22;21.23;;;;;;;-6.08;99.70;101091.50;5036896;28;20051;-51
2022/12/13 07:14:45;;;;;;;44.65;22.35;;;;;;;-6.07;100.00;101092.38;5045701;28;20045;-49
2022/12/13 07:17:10;;;;;;;39.78;22.40;;;;;;;-6.07;100.00;101085.47;5048521;28;20055;-51
2022/12/13 07:19:35;;;;;;;38.45;23.15;;;;;;;-6.07;100.00;101089.78;5050098;28;20037;-50
2022/12/13 07:22:04;;;;;;;41.75;23.10;;;;;;;-6.06;100.00;101089.78;5044656;28;20115;-49
2022/12/13 07:24:29;;;;;;;41.77;24.23;;;;;;;-6.05;100.00;101088.06;5045026;28;20024;-50
2022/12/13 07:26:54;;;;;;;39.65;22.48;;;;;;;-6.05;100.00;101086.31;5046908;28;20682;-48
2022/12/13 07:29:20;;;;;;;41.78;24.30;;;;;;;-6.04;100.00;101088.06;5042935;28;20469;-50
2022/12/13 07:31:45;;;;;;;41.35;22.38;;;;;;;-6.04;100.00;101089.78;5046574;28;20064;-49
2022/12/13 07:34:10;;;;;;;41.60;22.75;;;;;;;-6.02;100.00;101094.06;5045387;28;21097;-48
2022/12/13 07:36:36;;;;;;;41.28;22.88;;;;;;;-6.01;100.00;101094.91;5045255;28;20045;-50
2022/12/13 07:39:01;;;;;;;38.42;21.58;;;;;;;-6.00;100.00;101092.31;5048851;28;20471;-49
2022/12/13 07:41:26;;;;;;;43.60;23.60;;;;;;;-5.99;100.00;101091.47;5045381;28;20057;-48
2022/12/13 07:43:52;;;;;;;44.83;22.73;;;;;;;-5.94;100.00;101101.78;5048735;28;20075;-49
2022/12/13 07:46:18;;;;;;;42.00;23.92;;;;;;;-5.92;100.00;101101.78;5043200;28;20041;-48
2022/12/13 07:48:43;;;;;;;41.83;22.52;;;;;;;-5.90;100.00;101095.69;5049929;28;20029;-48
2022/12/13 07:51:10;;;;;;;38.58;23.33;;;;;;;-5.91;100.00;101101.75;5048296;28;20033;-49
2022/12/13 07:53:36;;;;;;;43.50;24.00;;;;;;;-5.87;100.00;101106.03;5045067;28;20372;-49
2022/12/13 07:56:09;;;;;;;45.10;24.17;;;;;;;-5.84;100.00;101105.19;5044687;28;20132;-49
2022/12/13 07:58:35;;;;;;;44.90;24.15;;;;;;;-5.83;100.00;101109.47;5046843;28;20055;-48
2022/12/13 08:01:10;;;;;;;43.35;24.05;;;;;;;-5.81;100.00;101113.78;5045305;28;20029;-50
2022/12/13 08:03:36;;;;;;;45.55;24.95;;;;;;;-5.78;100.00;101099.97;5044985;28;20518;-49
2022/12/13 08:06:04;;;;;;;42.25;24.55;;;;;;;-5.78;100.00;101099.97;5048874;28;20032;-49
2022/12/13 08:08:31;;;;;;;50.25;25.80;;;;;;;-5.75;100.00;101097.34;5047209;28;20479;-50
2022/12/13 08:11:03;;;;;;;48.53;25.60;;;;;;;-5.73;100.00;101099.94;5046848;28;20047;-49
2022/12/13 08:13:28;;;;;;;46.85;26.88;;;;;;;-5.73;100.00;101090.44;5039773;28;20053;-49
2022/12/13 08:15:59;;;;;;;50.35;25.90;;;;;;;-5.70;100.00;101100.78;5044152;28;20017;-50
2022/12/13 08:18:24;;;;;;;45.45;24.98;;;;;;;-5.69;100.00;101102.50;5045729;28;20040;-49
2022/12/13 08:20:49;;;;;;;50.20;26.52;;;;;;;-5.67;100.00;101108.53;5045752;28;20075;-48
2022/12/13 08:23:16;;;;;;;49.38;27.48;;;;;;;-5.64;100.00;101105.94;5048270;28;20047;-48
2022/12/13 08:25:41;;;;;;;46.90;25.05;;;;;;;-5.62;100.00;101104.19;5048162;28;20112;-48
2022/12/13 08:28:06;;;;;;;47.53;26.42;;;;;;;-5.60;100.00;101102.44;5048150;28;20399;-48
2022/12/13 08:30:32;;;;;;;45.70;24.60;;;;;;;-5.56;100.00;101113.66;5046132;28;20040;-49
2022/12/13 08:32:57;;;;;;;51.45;27.92;;;;;;;-5.52;100.00;101111.91;5045557;28;20048;-48
2022/12/13 08:35:27;;;;;;;53.30;27.63;;;;;;;-5.49;100.00;101117.06;5047351;28;20087;-49
2022/12/13 08:37:53;;;;;;;46.72;26.60;;;;;;;-5.46;100.00;101114.44;5042977;28;20033;-49
2022/12/13 08:40:18;;;;;;;47.78;27.30;;;;;;;-5.42;100.00;101116.16;5046004;28;20280;-49
2022/12/13 08:42:43;;;;;;;51.40;28.27;;;;;;;-5.38;100.00;101107.47;5035681;28;20021;-49
2022/12/13 08:45:09;;;;;;;51.25;27.55;;;;;;;-5.33;100.00;101112.63;5043212;28;20033;-48
2022/12/13 08:47:35;;;;;;;49.53;27.85;;;;;;;-5.30;100.00;101120.38;5040032;28;20448;-48
2022/12/13 08:50:01;;;;;;;45.63;26.25;;;;;;;-5.26;100.00;101117.78;5040581;28;20026;-48
2022/12/13 08:52:26;;;;;;;50.60;28.13;;;;;;;-5.22;100.00;101122.03;5042079;28;20025;-50
2022/12/13 08:54:51;;;;;;;49.00;26.75;;;;;;;-5.17;100.00;101122.03;5041926;28;20025;-50
2022/12/13 08:57:17;;;;;;;47.90;26.70;;;;;;;-5.12;100.00;101134.94;5040343;28;20021;-49
2022/12/13 08:59:42;;;;;;;51.63;26.85;;;;;;;-5.08;100.00;101132.31;5035711;28;20034;-49
2022/12/13 09:02:12;;;;;;;52.17;27.75;;;;;;;-5.01;100.00;101133.13;5033314;28;20063;-49
2022/12/13 09:04:37;;;;;;;48.03;26.27;;;;;;;-4.91;100.00;101126.13;5040593;28;20028;-49
2022/12/13 09:07:03;;;;;;;48.72;25.58;;;;;;;-4.81;100.00;101126.91;5040439;28;20032;-49
2022/12/13 09:09:28;;;;;;;49.10;28.23;;;;;;;-4.72;100.00;101125.09;5046819;28;20028;-49
2022/12/13 09:11:53;;;;;;;50.47;27.58;;;;;;;-4.65;100.00;101134.56;5037677;28;20037;-49
2022/12/13 09:14:19;;;;;;;45.10;25.05;;;;;;;-4.57;100.00;101131.88;5046390;28;20047;-49
2022/12/13 09:16:44;;;;;;;45.97;26.35;;;;;;;-4.52;100.00;101129.25;5042200;28;20104;-50
2022/12/13 09:19:10;;;;;;;42.55;24.98;;;;;;;-4.48;100.00;101125.75;5015763;28;20383;-50
2022/12/13 09:21:35;;;;;;;49.10;26.17;;;;;;;-4.43;100.00;101125.69;5037171;28;20507;-51
2022/12/13 09:24:00;;;;;;;42.38;24.38;;;;;;;-4.39;100.00;101128.25;5045254;28;20035;-50
2022/12/13 09:26:25;;;;;;;43.65;25.63;;;;;;;-4.32;100.00;101124.72;5040716;28;20029;-49
2022/12/13 09:28:51;;;;;;;41.00;24.55;;;;;;;-4.28;99.51;101131.59;5038888;28;20036;-50
2022/12/13 09:31:18;;;;;;;39.92;24.70;;;;;;;-4.26;99.59;101129.00;5041263;28;20029;-52
2022/12/13 09:33:45;;;;;;;48.42;25.33;;;;;;;-4.21;99.36;101134.09;5046563;28;20039;-50
2022/12/13 09:36:13;;;;;;;45.55;26.17;;;;;;;-4.16;98.98;101130.59;5036663;28;20119;-50
2022/12/13 09:38:38;;;;;;;44.67;25.92;;;;;;;-4.11;98.73;101131.41;5036755;28;20017;-49
2022/12/13 09:41:22;;;;;;;45.70;27.35;;;;;;;-4.03;98.61;101122.66;5044785;28;20472;-49
2022/12/13 09:43:53;;;;;;;43.83;26.52;;;;;;;-3.97;98.91;101126.06;5042462;28;20630;-49
2022/12/13 09:46:27;;;;;;;44.22;24.60;;;;;;;-3.91;98.29;101118.19;5048639;28;20387;-50
2022/12/13 09:48:55;;;;;;;43.97;25.42;;;;;;;-3.83;98.63;101125.03;5047862;28;20025;-49
2022/12/13 09:51:20;;;;;;;46.17;26.38;;;;;;;-3.78;97.94;101123.22;5049313;28;20438;-51
2022/12/13 09:53:49;;;;;;;46.80;26.45;;;;;;;-3.68;98.07;101118.78;5049644;28;20032;-51
2022/12/13 09:56:17;;;;;;;46.08;27.27;;;;;;;-3.61;97.22;101117.84;5048334;28;20121;-50
2022/12/13 09:58:42;;;;;;;45.42;27.40;;;;;;;-3.57;96.66;101122.94;5052027;28;20544;-50
2022/12/13 10:01:10;;;;;;;44.25;27.05;;;;;;;-3.51;96.85;101118.53;5040433;28;20063;-49
2022/12/13 10:03:36;;;;;;;45.75;26.63;;;;;;;-3.47;96.95;101115.03;5036458;28;20025;-52
2022/12/13 10:06:18;;;;;;;43.42;26.20;;;;;;;-3.37;96.66;101111.41;5048824;28;20018;-50
2022/12/13 10:08:47;;;;;;;46.63;27.60;;;;;;;-3.35;95.79;101107.94;5045499;28;20029;-49
2022/12/13 10:11:14;;;;;;;45.17;26.90;;;;;;;-3.27;95.95;101112.16;5038208;28;20029;-51
2022/12/13 10:13:58;;;;;;;45.88;28.33;;;;;;;-3.22;96.31;101108.59;5042101;28;20401;-51
2022/12/13 10:16:32;;;;;;;47.83;28.08;;;;;;;-3.14;95.29;101098.09;5043386;28;20048;-49
2022/12/13 10:18:58;;;;;;;50.47;29.10;;;;;;;-3.09;95.48;101098.03;5043329;28;20032;-49
2022/12/13 10:21:26;;;;;;;46.90;27.30;;;;;;;-3.03;95.60;101095.31;5031091;28;20029;-51
2022/12/13 10:23:51;;;;;;;45.72;27.08;;;;;;;-2.95;95.46;101098.63;5033091;28;20017;-51
2022/12/13 10:26:16;;;;;;;43.60;27.00;;;;;;;-2.90;95.34;101099.41;5046955;28;20032;-51
2022/12/13 10:28:43;;;;;;;45.65;28.05;;;;;;;-2.84;94.57;101085.47;5037375;28;20083;-54
2022/12/13 10:31:15;;;;;;;44.78;26.65;;;;;;;-2.80;94.06;101084.53;5043129;28;20368;-49
2022/12/13 10:33:51;;;;;;;42.10;24.38;;;;;;;-2.77;93.49;101078.44;5044663;28;20059;-50
2022/12/13 10:36:32;;;;;;;46.40;26.05;;;;;;;-2.73;93.83;101072.28;5035436;28;20029;-52
2022/12/13 10:38:58;;;;;;;48.95;27.10;;;;;;;-2.65;94.20;101067.78;5041287;28;20021;-52
2022/12/13 10:41:36;;;;;;;44.03;25.98;;;;;;;-2.61;94.02;101070.31;5051236;28;20158;-51
2022/12/13 10:44:11;;;;;;;45.55;26.48;;;;;;;-2.55;93.38;101079.75;5036753;28;20463;-51
2022/12/13 10:46:39;;;;;;;41.38;26.02;;;;;;;-2.49;93.64;101077.03;5037951;28;20064;-50
2022/12/13 10:49:21;;;;;;;45.53;25.50;;;;;;;-2.42;93.30;101065.63;5039118;28;20026;-51
2022/12/13 10:51:49;;;;;;;44.20;25.70;;;;;;;-2.34;92.87;101064.63;5043530;28;20021;-51
2022/12/13 10:54:24;;;;;;;44.38;26.17;;;;;;;-2.29;92.72;101058.44;5039513;28;20033;-51
2022/12/13 10:56:52;;;;;;;39.47;23.65;;;;;;;-2.20;92.12;101046.13;5038852;28;20028;-50
2022/12/13 10:59:19;;;;;;;45.83;25.20;;;;;;;-2.10;92.90;101048.53;5032948;28;20490;-54
2022/12/13 11:01:45;;;;;;;43.65;25.27;;;;;;;-1.99;91.75;101050.03;5036446;28;20356;-50
2022/12/13 11:04:26;;;;;;;41.35;25.27;;;;;;;-1.91;92.03;101041.16;5035620;28;20551;-53
2022/12/13 11:06:51;;;;;;;42.58;24.08;;;;;;;-1.83;91.38;101040.13;5039660;28;20039;-52
2022/12/13 11:09:34;;;;;;;39.70;24.23;;;;;;;-1.76;92.44;101031.31;5044744;28;20390;-53
2022/12/13 11:12:01;;;;;;;39.10;23.95;;;;;;;-1.68;90.83;101037.22;5043482;28;20036;-52
2022/12/13 11:14:35;;;;;;;37.47;23.20;;;;;;;-1.60;89.50;101032.69;5038725;28;20502;-54
2022/12/13 11:17:14;;;;;;;40.35;24.17;;;;;;;-1.58;89.20;101023.09;5044818;28;20035;-53
2022/12/13 11:19:45;;;;;;;38.88;23.65;;;;;;;-1.54;89.32;101021.25;5045226;28;20029;-52